Česky Dansk Deutsch English Español Suomi Français Magyar Italiano Nederlands norsk Polski Português svenska Türkçe

 

Het Weer

Mogadiscio (Somalia)

06:00, 4 april 2010 (GMT)

NWNNE
WE
SWSSE
Home            
Mogadiscio Belet Uen Gode Mandera Kabre Dare Military Wajir Lamu Garissa Neghelli Moyale Ghinnir / Ginir Masslo / Meslo Malindi Marsabit Burao Hargeisa Jiggiga Meru Isiolo Embu Dire Dawa Mombasa Berbera

Om een weerknop op uw website of weblog te plaatsen, copieer onderstaande code en plak die in uw pagina. In het eerste vakje staat HTML-code, in het tweede vakje UBB-code.


Add to Google

Details

Wind speed:2 bf, 6 kn, 3.1 m/s, 6.9 miles/h, 11.1 km/h
Wind direction:NNE, 020°
Visibility:Greater than 10000 m, 10 km, 32800 ft, 6.2 miles
Clouds:Ein wenig bewölkt at 3000 ft, 914 m
Temperature:30°C, 86°F
Gefühlte Temperatur:36°C, 97°F
Dew-point:25°C, 77°F
Atmospheric pressure:1012 hPa, 759.1 mmHg, 29.88 inHg, 0.999 atm
Relative humidity:74.7 %
METAR:HCMM 040600Z 02006KT 9999 FEW030 30/25 Q1012

Snelkoppelingen

Actuele weersinformatie van de hele wereld. Voeg locaties toe met het plus (+) symbool. Deze snelkoppelingen kunnen worden toegevoegd aan Google.

Lid van de Technetium groep

website free tracking
StatCounter NetStat W3C Validator

15-10-2019 05:56:04
astro.technetium.be money.technetium.be phote.technetium.be tafeltennistafel.technetium.be www.ligfiets.net